Time;durP1;ratioP1;P1;durP2;ratioP2;P2;SDS_P1;SDS_P2;PMS_P1;PMS_P2;Temp;Humidity;BMP_temperature;BMP_pressure;BME280_temperature;BME280_humidity;BME280_pressure;Samples;Min_cycle;Max_cycle;Signal;HPM_P1;HPM_P2
2022/08/14 00:01:14;;;;;;;7.95;4.60;;;20.10;1.00;;;;;;5055205;28;20045;-27
2022/08/14 00:03:40;;;;;;;7.15;4.57;;;20.00;1.00;;;;;;5055118;28;20399;-26
2022/08/14 00:06:07;;;;;;;7.82;5.07;;;20.00;1.00;;;;;;5069430;28;20044;-26
2022/08/14 00:08:32;;;;;;;9.43;5.03;;;19.90;1.00;;;;;;5054956;28;20084;-26
2022/08/14 00:10:58;;;;;;;7.78;4.50;;;19.90;23.20;;;;;;5054328;28;20091;-26
2022/08/14 00:13:29;;;;;;;6.63;4.93;;;19.80;58.20;;;;;;5053933;28;20036;-26
2022/08/14 00:15:57;;;;;;;9.18;4.53;;;19.80;80.30;;;;;;5055459;28;20041;-27
2022/08/14 00:18:26;;;;;;;6.25;4.75;;;19.80;94.60;;;;;;5053323;28;20536;-27
2022/08/14 00:20:52;;;;;;;7.05;4.90;;;19.70;99.90;;;;;;5054763;28;20082;-26
2022/08/14 00:23:18;;;;;;;7.70;4.55;;;19.70;99.90;;;;;;5052599;28;20060;-27
2022/08/14 00:25:47;;;;;;;8.45;5.20;;;19.70;99.90;;;;;;5054651;28;20191;-27
2022/08/14 00:28:14;;;;;;;8.10;4.80;;;19.70;99.90;;;;;;5054304;28;20580;-27
2022/08/14 00:30:40;;;;;;;8.85;4.95;;;19.60;99.90;;;;;;5054607;28;20092;-27
2022/08/14 00:33:07;;;;;;;7.72;4.60;;;19.60;99.90;;;;;;5053414;28;20072;-26
2022/08/14 00:35:34;;;;;;;11.70;5.25;;;19.60;99.90;;;;;;5054774;28;20064;-26
2022/08/14 00:38:00;;;;;;;8.82;5.63;;;19.50;99.90;;;;;;5054424;28;20090;-26
2022/08/14 00:40:26;;;;;;;8.13;5.47;;;19.60;99.90;;;;;;5054428;28;20044;-27
2022/08/14 00:42:52;;;;;;;7.07;5.78;;;19.50;99.90;;;;;;5068721;28;20506;-27
2022/08/14 00:45:18;;;;;;;7.97;6.10;;;19.50;99.90;;;;;;5045456;28;20049;-27
2022/08/14 00:47:46;;;;;;;5.93;5.28;;;19.50;99.90;;;;;;5055108;28;20147;-27
2022/08/14 00:50:16;;;;;;;11.48;5.07;;;19.60;99.90;;;;;;5053990;28;20045;-27
2022/08/14 00:52:44;;;;;;;8.60;5.75;;;19.60;99.90;;;;;;5053741;28;20483;-27
2022/08/14 00:55:11;;;;;;;9.20;5.63;;;19.60;99.90;;;;;;5053044;28;20064;-26
2022/08/14 00:57:37;;;;;;;7.30;5.85;;;19.60;99.90;;;;;;5053007;28;20040;-27
2022/08/14 01:00:13;;;;;;;10.07;6.47;;;19.60;99.90;;;;;;5054066;28;20053;-26
2022/08/14 01:02:42;;;;;;;10.25;6.47;;;19.60;99.90;;;;;;5053116;28;20041;-26
2022/08/14 01:05:22;;;;;;;7.53;6.05;;;19.60;99.90;;;;;;5053955;28;20522;-28
2022/08/14 01:07:56;;;;;;;7.47;5.90;;;19.60;99.90;;;;;;5053175;28;20041;-27
2022/08/14 01:10:49;;;;;;;7.18;6.47;;;19.50;99.90;;;;;;5053714;28;20045;-26
2022/08/14 01:13:15;;;;;;;9.60;7.15;;;19.50;99.90;;;;;;5054066;28;20498;-27
2022/08/14 01:15:47;;;;;;;9.80;7.05;;;19.40;99.90;;;;;;5054514;28;20053;-26
2022/08/14 01:21:05;;;;;;;9.48;7.18;;;19.40;1.00;;;;;;5054391;28;20105;-27
2022/08/14 01:23:33;;;;;;;9.82;7.22;;;19.30;1.00;;;;;;5053779;28;20471;-26
2022/08/14 01:25:59;;;;;;;8.57;6.85;;;19.30;1.00;;;;;;5053724;28;20056;-26
2022/08/14 01:28:25;;;;;;;9.15;7.25;;;19.30;1.00;;;;;;5052932;28;20052;-26
2022/08/14 01:30:56;;;;;;;8.73;7.63;;;19.20;1.00;;;;;;5052617;28;20045;-26
2022/08/14 01:33:27;;;;;;;10.90;7.28;;;19.20;1.00;;;;;;5054425;28;20037;-26
2022/08/14 01:36:03;;;;;;;10.45;7.40;;;19.20;1.00;;;;;;5054191;28;20045;-26
2022/08/14 01:38:33;;;;;;;10.45;7.38;;;19.20;1.00;;;;;;5054348;28;20423;-27
2022/08/14 01:41:00;;;;;;;7.72;6.80;;;19.20;1.00;;;;;;5051962;28;20049;-27
2022/08/14 01:43:29;;;;;;;12.40;8.18;;;19.20;1.00;;;;;;5054077;28;20053;-27
2022/08/14 01:45:59;;;;;;;9.02;7.60;;;19.20;1.00;;;;;;5054040;28;20045;-26
2022/08/14 01:48:32;;;;;;;9.02;8.07;;;19.20;1.00;;;;;;5053484;28;20107;-26
2022/08/14 01:51:02;;;;;;;9.45;7.97;;;19.20;1.00;;;;;;5052399;28;20041;-26
2022/08/14 01:53:30;;;;;;;10.40;8.13;;;19.20;1.00;;;;;;5053391;28;20049;-26
2022/08/14 01:55:59;;;;;;;9.48;7.57;;;19.10;1.00;;;;;;5053915;28;20083;-27
2022/08/14 01:58:26;;;;;;;10.65;8.18;;;19.10;1.00;;;;;;5053840;28;20052;-27
2022/08/14 02:00:53;;;;;;;9.50;7.82;;;19.10;1.00;;;;;;5052100;28;20120;-28
2022/08/14 02:03:19;;;;;;;11.38;7.95;;;19.20;6.40;;;;;;5046943;28;20044;-26
2022/08/14 02:05:45;;;;;;;9.98;8.77;;;19.20;4.30;;;;;;5051941;28;20507;-27
2022/08/14 02:08:10;;;;;;;10.40;8.48;;;19.20;1.00;;;;;;5053242;28;20087;-26
2022/08/14 02:10:40;;;;;;;9.20;8.27;;;19.20;6.00;;;;;;5053264;28;20054;-27
2022/08/14 02:13:07;;;;;;;11.38;8.32;;;19.20;1.00;;;;;;5052322;28;20449;-27
2022/08/14 02:15:33;;;;;;;9.85;7.68;;;19.20;1.00;;;;;;5053756;28;20049;-27
2022/08/14 02:18:00;;;;;;;9.95;7.90;;;19.10;1.00;;;;;;5054390;28;20510;-26
2022/08/14 02:20:32;;;;;;;9.45;8.45;;;19.20;1.00;;;;;;5056135;28;20041;-26
2022/08/14 02:22:59;;;;;;;9.45;8.50;;;19.10;1.00;;;;;;5056191;28;20053;-26
2022/08/14 02:25:25;;;;;;;9.27;8.30;;;19.10;1.00;;;;;;5056014;28;20063;-26
2022/08/14 02:27:55;;;;;;;9.93;8.05;;;19.10;1.00;;;;;;5057215;28;20083;-26
2022/08/14 02:30:25;;;;;;;11.00;9.50;;;19.10;1.00;;;;;;5056854;28;20048;-26
2022/08/14 02:32:52;;;;;;;10.13;8.57;;;19.10;1.00;;;;;;5054702;28;20052;-26
2022/08/14 02:35:18;;;;;;;9.98;9.00;;;19.10;1.00;;;;;;5056835;28;20088;-26
2022/08/14 02:37:48;;;;;;;9.10;8.20;;;19.10;8.40;;;;;;5056916;28;20410;-26
2022/08/14 02:40:14;;;;;;;10.18;8.52;;;19.10;1.00;;;;;;5057218;28;20045;-26
2022/08/14 02:42:40;;;;;;;12.52;8.82;;;19.10;1.00;;;;;;5056278;28;20049;-26
2022/08/14 02:45:07;;;;;;;9.48;8.07;;;19.10;1.00;;;;;;5056477;28;20056;-26
2022/08/14 02:47:34;;;;;;;10.77;8.15;;;19.10;1.00;;;;;;5056379;28;20057;-26
2022/08/14 02:49:59;;;;;;;11.52;9.77;;;19.10;1.00;;;;;;5056508;28;20060;-26
2022/08/14 02:52:26;;;;;;;11.15;9.45;;;19.00;1.30;;;;;;5056135;28;20049;-25
2022/08/14 02:54:52;;;;;;;12.25;10.00;;;19.10;9.20;;;;;;5054319;28;20106;-26
2022/08/14 02:57:20;;;;;;;14.05;9.15;;;19.00;3.60;;;;;;5056318;28;20045;-26
2022/08/14 02:59:47;;;;;;;11.00;9.23;;;19.00;14.90;;;;;;5056306;28;20085;-26
2022/08/14 03:02:15;;;;;;;15.85;8.52;;;19.00;20.20;;;;;;5056268;28;20044;-26
2022/08/14 03:04:41;;;;;;;10.23;8.85;;;19.00;21.80;;;;;;5055256;28;20049;-26
2022/08/14 03:07:08;;;;;;;12.82;10.20;;;19.00;48.80;;;;;;5056751;28;20351;-25
2022/08/14 03:09:38;;;;;;;13.18;9.07;;;19.00;60.60;;;;;;5055234;28;20048;-26
2022/08/14 03:12:05;;;;;;;10.65;9.32;;;19.00;66.90;;;;;;5054946;28;20374;-26
2022/08/14 03:14:35;;;;;;;10.90;9.23;;;18.90;86.10;;;;;;5055058;28;20047;-26
2022/08/14 03:17:00;;;;;;;11.63;9.88;;;18.90;99.90;;;;;;5054430;28;20095;-27
2022/08/14 03:19:26;;;;;;;10.95;9.85;;;18.80;99.90;;;;;;5055890;28;20053;-26
2022/08/14 03:21:52;;;;;;;10.88;9.45;;;18.80;99.90;;;;;;5055938;28;20494;-26
2022/08/14 03:24:21;;;;;;;12.85;10.68;;;18.80;99.90;;;;;;5054679;28;20406;-26
2022/08/14 03:26:48;;;;;;;11.52;10.32;;;18.70;99.90;;;;;;5053576;28;20128;-26
2022/08/14 03:29:19;;;;;;;12.35;11.05;;;18.70;99.90;;;;;;5053948;28;20075;-26
2022/08/14 03:31:48;;;;;;;11.48;10.07;;;18.70;99.90;;;;;;5055796;28;20132;-26
2022/08/14 03:34:14;;;;;;;11.32;10.23;;;18.70;99.90;;;;;;5055639;28;20430;-26
2022/08/14 03:36:42;;;;;;;11.88;9.57;;;18.70;99.90;;;;;;5054770;28;20068;-26
2022/08/14 03:39:09;;;;;;;16.10;10.90;;;18.60;99.90;;;;;;5054903;28;20122;-26
2022/08/14 03:41:35;;;;;;;13.48;10.70;;;18.60;99.90;;;;;;5054865;28;20107;-26
2022/08/14 03:44:03;;;;;;;11.82;9.80;;;18.60;99.90;;;;;;5055552;28;20044;-26
2022/08/14 03:46:32;;;;;;;12.05;9.85;;;18.60;99.90;;;;;;5037012;28;20053;-26
2022/08/14 03:49:00;;;;;;;10.88;9.77;;;18.60;99.90;;;;;;5055095;28;20441;-26
2022/08/14 03:51:27;;;;;;;11.95;10.75;;;18.60;99.90;;;;;;5055920;28;20123;-26
2022/08/14 03:53:56;;;;;;;12.13;10.93;;;18.60;99.90;;;;;;5054146;28;20103;-27
2022/08/14 03:56:24;;;;;;;12.40;11.10;;;18.60;99.90;;;;;;5055342;28;20068;-26
2022/08/14 03:58:56;;;;;;;11.40;10.20;;;18.60;99.90;;;;;;5054051;28;20041;-26
2022/08/14 04:01:23;;;;;;;15.93;10.60;;;18.60;99.90;;;;;;5055527;28;20083;-26
2022/08/14 04:03:51;;;;;;;13.63;10.93;;;18.60;99.90;;;;;;5054215;28;20045;-26
2022/08/14 04:06:19;;;;;;;12.63;10.73;;;18.60;99.90;;;;;;5055909;28;20057;-26
2022/08/14 04:08:46;;;;;;;12.45;10.13;;;18.60;99.90;;;;;;5054062;28;20073;-26
2022/08/14 04:11:12;;;;;;;12.45;10.40;;;18.60;99.90;;;;;;5053869;28;20398;-26
2022/08/14 04:13:41;;;;;;;11.50;10.15;;;18.50;99.90;;;;;;5055209;28;20174;-26
2022/08/14 04:16:24;;;;;;;16.00;11.05;;;18.50;99.90;;;;;;5054907;28;20048;-26
2022/08/14 04:18:52;;;;;;;12.55;11.25;;;18.50;99.90;;;;;;5054149;28;20191;-26
2022/08/14 04:21:23;;;;;;;14.90;11.50;;;18.50;99.90;;;;;;5055343;28;20142;-26
2022/08/14 04:23:51;;;;;;;12.35;11.05;;;18.50;99.90;;;;;;5053556;28;20191;-26
2022/08/14 04:26:20;;;;;;;14.13;11.73;;;18.50;99.90;;;;;;5053537;28;20049;-26
2022/08/14 04:28:48;;;;;;;13.35;11.48;;;18.50;99.90;;;;;;5053929;28;20049;-26
2022/08/14 04:31:15;;;;;;;14.70;12.02;;;18.50;99.90;;;;;;5055114;28;20494;-26
2022/08/14 04:33:41;;;;;;;12.32;11.07;;;18.50;99.90;;;;;;5054455;28;20053;-26
2022/08/14 04:36:07;;;;;;;12.98;11.75;;;18.50;99.90;;;;;;5054500;28;20047;-26
2022/08/14 04:44:01;;;;;;;13.73;12.38;;;18.40;99.90;;;;;;5054999;28;20075;-26
2022/08/14 04:46:27;;;;;;;16.30;11.73;;;18.40;99.90;;;;;;5053129;28;20475;-27
2022/08/14 04:48:54;;;;;;;13.60;12.30;;;18.40;99.90;;;;;;5054240;28;20049;-26
2022/08/14 04:51:24;;;;;;;16.27;11.05;;;18.40;99.90;;;;;;5051887;28;20087;-26
2022/08/14 04:53:50;;;;;;;11.90;10.07;;;18.50;99.90;;;;;;5054103;28;20078;-26
2022/08/14 04:56:21;;;;;;;14.80;11.68;;;18.50;99.90;;;;;;5054138;28;20051;-26
2022/08/14 04:58:54;;;;;;;13.77;10.93;;;18.50;99.90;;;;;;5054622;28;20040;-26
2022/08/14 05:01:20;;;;;;;15.07;11.52;;;18.50;99.90;;;;;;5052800;28;20538;-26
2022/08/14 05:03:46;;;;;;;13.68;10.98;;;18.60;99.90;;;;;;5052573;28;20375;-26
2022/08/14 05:06:12;;;;;;;12.80;10.25;;;18.60;99.90;;;;;;5054585;28;20107;-26
2022/08/14 05:08:39;;;;;;;11.25;10.15;;;18.70;99.90;;;;;;5053956;28;20037;-26
2022/08/14 05:11:06;;;;;;;11.75;10.50;;;18.80;99.90;;;;;;5052853;28;20043;-26
2022/08/14 05:13:33;;;;;;;13.63;10.77;;;18.80;99.90;;;;;;5053214;28;20048;-26
2022/08/14 05:16:00;;;;;;;11.18;10.02;;;18.90;99.90;;;;;;5054418;28;20128;-26
2022/08/14 05:18:32;;;;;;;13.38;10.30;;;18.90;99.90;;;;;;5054047;28;20056;-26
2022/08/14 05:21:00;;;;;;;12.93;10.45;;;19.00;99.90;;;;;;5052807;28;20056;-26
2022/08/14 05:23:29;;;;;;;11.60;10.50;;;19.00;99.90;;;;;;5053666;28;20045;-26
2022/08/14 05:26:00;;;;;;;11.45;10.35;;;19.10;99.90;;;;;;5053652;28;20045;-27
2022/08/14 05:28:29;;;;;;;15.02;10.40;;;19.20;99.90;;;;;;5054285;28;20072;-27
2022/08/14 05:30:58;;;;;;;13.35;10.68;;;19.30;99.90;;;;;;5053634;28;20120;-26
2022/08/14 05:33:27;;;;;;;12.43;9.90;;;19.40;99.90;;;;;;5051706;28;20134;-26
2022/08/14 05:35:59;;;;;;;12.68;9.85;;;19.50;1.00;;;;;;5054142;28;20045;-26
2022/08/14 05:38:32;;;;;;;14.93;10.40;;;19.50;1.00;;;;;;5053577;28;20048;-26
2022/08/14 05:41:02;;;;;;;13.50;9.95;;;19.60;1.00;;;;;;5054463;28;20106;-26
2022/08/14 05:43:29;;;;;;;14.27;9.85;;;19.70;1.00;;;;;;5052637;28;20049;-26
2022/08/14 05:45:57;;;;;;;9.82;8.85;;;19.80;1.00;;;;;;5053572;28;20060;-26
2022/08/14 05:48:23;;;;;;;9.68;8.77;;;19.90;1.00;;;;;;5052895;28;20037;-26
2022/08/14 05:50:50;;;;;;;9.82;8.82;;;20.00;1.00;;;;;;5053462;28;20041;-26
2022/08/14 05:53:16;;;;;;;9.68;8.70;;;20.20;99.90;;;;;;5055593;28;20116;-26
2022/08/14 05:55:42;;;;;;;10.27;8.80;;;20.20;99.90;;;;;;5057514;28;20132;-26
2022/08/14 05:58:08;;;;;;;9.93;8.50;;;20.40;99.90;;;;;;5057436;28;20041;-26
2022/08/14 06:00:40;;;;;;;13.23;9.00;;;20.50;99.90;;;;;;5057453;28;20048;-26
2022/08/14 06:03:09;;;;;;;9.13;8.18;;;20.60;99.90;;;;;;5056383;28;20087;-26
2022/08/14 06:05:36;;;;;;;10.07;8.02;;;20.70;99.90;;;;;;5055936;28;20062;-26
2022/08/14 06:08:02;;;;;;;8.57;7.47;;;20.90;1.00;;;;;;5056401;28;20098;-26
2022/08/14 06:10:30;;;;;;;7.70;6.90;;;21.00;99.90;;;;;;5057836;28;20136;-26
2022/08/14 06:13:02;;;;;;;10.43;9.18;;;21.10;99.90;;;;;;5057207;28;20091;-26
2022/08/14 06:15:28;;;;;;;10.88;8.13;;;21.30;99.90;;;;;;5056068;28;20079;-26
2022/08/14 06:17:57;;;;;;;11.23;6.93;;;21.40;99.90;;;;;;5055739;28;20041;-27
2022/08/14 06:20:23;;;;;;;6.75;6.05;;;21.50;99.90;;;;;;5054456;28;20049;-26
2022/08/14 06:22:49;;;;;;;11.05;6.63;;;21.60;99.90;;;;;;5043473;28;20056;-27
2022/08/14 06:25:15;;;;;;;7.10;6.25;;;21.80;99.90;;;;;;5055643;28;20092;-26
2022/08/14 06:27:43;;;;;;;9.40;6.50;;;21.90;99.90;;;;;;5055913;28;20040;-26
2022/08/14 06:30:15;;;;;;;8.68;6.50;;;22.00;99.10;;;;;;5056635;28;20044;-28
2022/08/14 06:32:41;;;;;;;9.52;6.65;;;22.10;52.60;;;;;;5056789;28;20136;-27
2022/08/14 06:35:08;;;;;;;8.48;6.18;;;22.20;1.00;;;;;;5055855;28;20124;-26
2022/08/14 06:37:50;;;;;;;9.73;6.10;;;22.30;1.00;;;;;;5057048;28;20045;-26
2022/08/14 06:40:27;;;;;;;8.23;6.40;;;22.50;1.00;;;;;;5052792;28;20056;-26
2022/08/14 06:42:58;;;;;;;9.40;5.88;;;22.60;1.00;;;;;;5036774;28;20107;-26
2022/08/14 06:45:23;;;;;;;7.43;6.13;;;22.80;1.00;;;;;;5055727;28;20099;-26
2022/08/14 06:47:49;;;;;;;6.93;5.82;;;23.00;1.00;;;;;;5056577;28;20037;-26
2022/08/14 06:50:18;;;;;;;9.93;6.50;;;23.00;99.90;;;;;;5056546;28;20091;-26
2022/08/14 06:52:44;;;;;;;6.55;5.55;;;23.00;99.90;;;;;;5057042;28;20398;-26
2022/08/14 06:55:13;;;;;;;7.38;6.07;;;23.10;99.90;;;;;;5056491;28;20044;-26
2022/08/14 06:57:44;;;;;;;8.88;5.88;;;23.10;99.90;;;;;;5056306;28;20081;-26
2022/08/14 07:00:13;;;;;;;6.97;6.25;;;23.20;99.90;;;;;;5039256;28;20040;-26
2022/08/14 07:08:17;;;;;;;6.95;6.25;;;23.50;99.90;;;;;;5056233;28;20056;-26
2022/08/14 07:10:44;;;;;;;7.95;5.95;;;23.60;99.90;;;;;;5055218;28;20052;-26
2022/08/14 07:13:11;;;;;;;6.55;5.82;;;23.60;99.90;;;;;;5056134;28;20088;-27
2022/08/14 07:15:37;;;;;;;8.20;7.30;;;23.70;99.90;;;;;;5055989;28;20513;-26
2022/08/14 07:18:04;;;;;;;9.05;7.03;;;23.70;99.90;;;;;;5054670;28;20495;-26
2022/08/14 07:20:30;;;;;;;7.03;6.30;;;23.80;99.90;;;;;;5056040;28;20480;-26
2022/08/14 07:22:57;;;;;;;9.98;6.53;;;23.80;99.90;;;;;;5055928;28;20560;-26
2022/08/14 07:25:26;;;;;;;8.50;6.10;;;23.90;99.90;;;;;;5056164;28;20497;-26
2022/08/14 07:27:52;;;;;;;7.88;6.15;;;24.00;99.90;;;;;;5055919;28;20166;-26
2022/08/14 07:30:18;;;;;;;7.47;5.82;;;24.00;99.90;;;;;;5056671;28;20080;-26
2022/08/14 07:32:44;;;;;;;9.57;6.15;;;24.10;99.90;;;;;;5054642;28;20075;-28
2022/08/14 07:35:10;;;;;;;7.95;6.20;;;24.20;99.90;;;;;;5053646;28;20139;-27
2022/08/14 07:37:35;;;;;;;10.20;5.70;;;24.20;99.90;;;;;;5052619;28;20033;-26
2022/08/14 07:40:04;;;;;;;13.00;6.93;;;24.30;99.90;;;;;;5055562;28;20060;-27
2022/08/14 07:42:31;;;;;;;6.32;5.78;;;24.40;48.50;;;;;;5054587;28;20083;-27
2022/08/14 07:45:00;;;;;;;9.43;5.65;;;24.50;56.50;;;;;;5054489;28;20052;-26
2022/08/14 07:47:25;;;;;;;8.32;5.63;;;24.70;62.80;;;;;;5053664;28;20040;-27
2022/08/14 07:50:06;;;;;;;7.60;5.78;;;24.70;18.10;;;;;;5052608;28;20048;-26
2022/08/14 07:52:33;;;;;;;9.82;5.80;;;24.80;1.00;;;;;;5048507;28;20513;-26
2022/08/14 07:54:59;;;;;;;6.97;6.15;;;24.80;1.00;;;;;;5054343;28;20491;-26
2022/08/14 07:57:26;;;;;;;6.70;5.70;;;24.90;1.00;;;;;;5059926;28;20116;-26
2022/08/14 07:59:52;;;;;;;6.75;5.55;;;25.00;18.50;;;;;;5053216;28;20068;-26
2022/08/14 08:02:20;;;;;;;8.02;6.15;;;25.10;1.00;;;;;;5055490;28;20484;-26
2022/08/14 08:04:52;;;;;;;8.57;5.85;;;25.20;1.00;;;;;;5055116;28;20099;-27
2022/08/14 08:07:18;;;;;;;;;;;25.20;1.00;;;;;;5055823;28;20489;-26
2022/08/14 08:09:52;;;;;;;7.10;5.32;;;25.30;1.00;;;;;;5053718;28;20007;-26
2022/08/14 08:12:19;;;;;;;7.15;5.88;;;25.40;1.00;;;;;;5048200;28;20076;-26
2022/08/14 08:14:49;;;;;;;5.88;5.32;;;25.50;1.00;;;;;;5053579;28;20078;-26
2022/08/14 08:17:20;;;;;;;5.50;4.88;;;25.60;99.90;;;;;;5055689;28;20420;-27
2022/08/14 08:19:47;;;;;;;6.82;5.88;;;25.70;99.90;;;;;;5051167;28;20411;-26
2022/08/14 08:22:13;;;;;;;7.50;5.50;;;25.80;99.90;;;;;;5053315;28;20089;-26
2022/08/14 08:24:39;;;;;;;5.60;4.75;;;25.80;99.90;;;;;;5054761;28;20131;-26
2022/08/14 08:27:15;;;;;;;5.70;4.97;;;25.90;99.90;;;;;;5054148;28;20081;-26
2022/08/14 08:29:41;;;;;;;5.97;4.82;;;26.10;99.90;;;;;;5054643;28;20049;-27
2022/08/14 08:32:07;;;;;;;6.40;5.07;;;26.10;99.90;;;;;;5053528;28;20052;-26
2022/08/14 08:34:45;;;;;;;5.95;4.95;;;26.10;99.90;;;;;;5053292;28;20049;-26
2022/08/14 08:37:13;;;;;;;8.15;4.80;;;26.20;99.90;;;;;;5052806;28;20143;-26
2022/08/14 08:39:46;;;;;;;6.30;4.70;;;26.20;99.90;;;;;;5051001;28;20048;-27
2022/08/14 08:42:12;;;;;;;6.10;5.50;;;26.30;99.90;;;;;;5053014;28;20049;-27
2022/08/14 08:44:38;;;;;;;10.07;4.53;;;26.40;99.90;;;;;;5053460;28;20057;-26
2022/08/14 08:47:04;;;;;;;8.23;4.85;;;26.50;99.90;;;;;;5053241;28;20495;-27
2022/08/14 08:49:41;;;;;;;6.50;4.57;;;26.60;99.90;;;;;;5053042;28;20487;-27
2022/08/14 08:52:07;;;;;;;6.95;4.53;;;26.70;99.90;;;;;;5052504;28;20055;-26
2022/08/14 08:54:33;;;;;;;5.30;3.97;;;26.70;65.70;;;;;;5054499;28;20045;-26
2022/08/14 08:56:59;;;;;;;10.23;4.45;;;26.80;99.90;;;;;;5036502;28;20052;-26
2022/08/14 08:59:29;;;;;;;5.88;4.07;;;26.90;99.90;;;;;;5047325;28;20041;-27
2022/08/14 09:01:59;;;;;;;5.40;4.38;;;27.00;99.90;;;;;;5035274;28;20055;-27
2022/08/14 09:04:34;;;;;;;5.72;4.35;;;27.10;99.90;;;;;;5050708;28;20083;-28
2022/08/14 09:07:00;;;;;;;6.00;5.35;;;27.20;86.90;;;;;;5050654;28;20053;-28
2022/08/14 09:09:30;;;;;;;7.60;5.60;;;27.70;99.90;;;;;;5053597;28;20461;-28
2022/08/14 09:11:58;;;;;;;5.15;4.75;;;28.50;1.00;;;;;;5053788;28;20052;-28
2022/08/14 09:14:28;;;;;;;5.00;4.50;;;29.40;1.00;;;;;;5053164;28;20048;-28
2022/08/14 09:16:58;;;;;;;7.38;4.82;;;30.00;99.90;;;;;;5053388;28;20051;-28
2022/08/14 09:19:27;;;;;;;4.18;3.78;;;30.40;99.90;;;;;;5053191;28;20096;-28
2022/08/14 09:21:53;;;;;;;5.75;4.13;;;30.80;99.90;;;;;;5053707;28;20045;-29
2022/08/14 09:24:20;;;;;;;5.57;3.55;;;31.30;99.90;;;;;;5053780;28;20048;-28
2022/08/14 09:26:46;;;;;;;7.25;3.72;;;31.40;99.90;;;;;;5052740;28;20091;-28
2022/08/14 09:29:12;;;;;;;4.85;3.78;;;31.50;99.90;;;;;;5053631;28;20053;-28
2022/08/14 09:31:43;;;;;;;5.43;3.63;;;31.70;99.90;;;;;;5054192;28;20088;-29
2022/08/14 09:34:17;;;;;;;5.25;3.83;;;32.00;99.90;;;;;;5051600;28;20498;-29
2022/08/14 09:37:18;;;;;;;9.13;3.55;;;32.30;99.90;;;;;;5054141;28;20037;-28
2022/08/14 09:40:18;;;;;;;7.63;4.35;;;32.60;99.90;;;;;;5054415;28;20132;-28
2022/08/14 09:43:13;;;;;;;4.53;3.30;;;32.80;99.90;;;;;;5041594;28;20056;-29
2022/08/14 09:45:46;;;;;;;7.55;3.85;;;32.90;99.90;;;;;;5031217;28;20507;-28
2022/08/14 09:48:21;;;;;;;4.75;3.67;;;32.80;99.90;;;;;;5053247;28;20041;-30
2022/08/14 09:50:50;;;;;;;5.78;4.07;;;33.00;99.90;;;;;;5045538;28;20056;-29
2022/08/14 09:53:33;;;;;;;5.05;3.33;;;32.70;99.90;;;;;;5037347;28;20049;-29
2022/08/14 09:56:00;;;;;;;4.90;3.20;;;32.90;99.90;;;;;;5054245;28;20434;-29
2022/08/14 09:58:43;;;;;;;5.05;3.05;;;33.00;99.90;;;;;;5054010;28;20047;-28
2022/08/14 10:01:13;;;;;;;5.78;3.80;;;32.90;99.90;;;;;;5052282;28;20045;-28
2022/08/14 10:03:55;;;;;;;6.10;4.78;;;33.00;99.90;;;;;;5049168;28;20056;-29
2022/08/14 10:06:25;;;;;;;10.68;3.53;;;32.90;99.90;;;;;;5032184;28;20060;-28
2022/08/14 10:08:56;;;;;;;4.07;3.67;;;32.80;99.90;;;;;;5033492;28;20054;-28
2022/08/14 10:11:29;;;;;;;6.82;3.90;;;32.90;99.90;;;;;;5039981;28;20043;-28
2022/08/14 10:14:01;;;;;;;5.18;3.78;;;33.30;99.90;;;;;;5050660;28;20041;-28
2022/08/14 10:16:29;;;;;;;6.47;3.80;;;33.40;99.90;;;;;;5052202;28;20091;-28
2022/08/14 10:19:27;;;;;;;3.70;3.25;;;33.60;99.90;;;;;;5052742;28;20061;-28
2022/08/14 10:22:00;;;;;;;5.82;3.10;;;33.70;99.90;;;;;;5052966;28;20053;-29
2022/08/14 10:24:32;;;;;;;8.05;3.30;;;33.70;99.90;;;;;;5048921;28;20053;-28
2022/08/14 10:27:01;;;;;;;3.72;3.13;;;33.70;99.90;;;;;;5048996;28;20095;-28
2022/08/14 10:29:36;;;;;;;3.30;2.90;;;33.60;99.90;;;;;;5051395;28;20132;-28
2022/08/14 10:32:03;;;;;;;5.25;3.60;;;33.50;99.90;;;;;;5050244;28;20107;-28
2022/08/14 10:34:38;;;;;;;4.30;3.80;;;33.40;99.90;;;;;;5053517;28;20045;-28
2022/08/14 10:37:15;;;;;;;4.72;3.53;;;33.30;99.90;;;;;;5051872;28;20049;-29
2022/08/14 10:39:56;;;;;;;5.40;3.42;;;33.60;99.90;;;;;;5057550;28;20049;-28
2022/08/14 10:42:22;;;;;;;3.22;2.90;;;33.70;99.90;;;;;;5056313;28;20384;-28
2022/08/14 10:44:51;;;;;;;7.10;3.75;;;33.30;99.90;;;;;;5056707;28;20075;-28
2022/08/14 10:47:17;;;;;;;4.15;3.53;;;33.40;99.90;;;;;;5050163;28;20061;-28
2022/08/14 10:49:59;;;;;;;3.88;3.58;;;33.50;99.90;;;;;;5052853;28;20057;-28
2022/08/14 10:52:29;;;;;;;3.95;3.42;;;33.70;99.90;;;;;;5060608;28;20051;-29
2022/08/14 10:55:18;;;;;;;5.20;3.50;;;33.50;99.90;;;;;;5054944;28;20439;-28
2022/08/14 10:57:55;;;;;;;5.82;3.50;;;33.60;99.90;;;;;;5045343;28;20084;-28
2022/08/14 11:00:25;;;;;;;4.10;3.08;;;33.60;99.90;;;;;;5051355;28;20045;-28
2022/08/14 11:03:00;;;;;;;4.50;2.45;;;33.80;99.90;;;;;;5054441;28;20049;-29
2022/08/14 11:05:37;;;;;;;3.67;2.83;;;34.20;99.90;;;;;;5053212;28;20052;-28
2022/08/14 11:08:03;;;;;;;3.95;2.92;;;34.50;99.90;;;;;;5054210;28;20128;-29
2022/08/14 11:10:54;;;;;;;4.63;3.38;;;34.60;99.90;;;;;;5053846;28;20123;-29
2022/08/14 11:13:26;;;;;;;9.60;3.10;;;34.60;99.90;;;;;;5051743;28;20045;-28
2022/08/14 11:15:55;;;;;;;5.28;3.08;;;34.60;99.90;;;;;;5056064;28;20621;-29
2022/08/14 11:18:21;;;;;;;3.63;3.03;;;34.40;99.90;;;;;;5052124;28;20052;-30
2022/08/14 11:20:55;;;;;;;4.05;3.03;;;34.40;99.90;;;;;;5043483;28;20042;-28
2022/08/14 11:23:34;;;;;;;4.72;3.13;;;34.20;99.90;;;;;;5049363;28;20498;-28
2022/08/14 11:26:01;;;;;;;3.97;3.35;;;34.20;99.90;;;;;;5055048;28;20048;-29
2022/08/14 11:28:32;;;;;;;2.83;2.63;;;34.00;99.90;;;;;;5053124;28;20475;-28
2022/08/14 11:30:58;;;;;;;5.32;3.30;;;33.90;99.90;;;;;;5049622;28;20057;-29
2022/08/14 11:33:31;;;;;;;5.22;2.97;;;33.80;99.90;;;;;;5052804;28;20496;-29
2022/08/14 11:36:04;;;;;;;4.90;3.67;;;34.00;99.90;;;;;;5063554;28;20057;-29
2022/08/14 11:38:46;;;;;;;4.70;3.20;;;34.60;99.90;;;;;;5054373;28;20059;-30
2022/08/14 11:41:13;;;;;;;;;;;34.80;99.90;;;;;;5054808;28;20492;-29
2022/08/14 11:43:40;;;;;;;5.25;3.30;;;34.80;99.90;;;;;;5071275;28;19999;-28
2022/08/14 11:46:07;;;;;;;4.22;3.38;;;34.90;99.90;;;;;;5053994;28;20120;-29
2022/08/14 11:48:48;;;;;;;3.55;2.95;;;35.20;99.90;;;;;;5044128;28;20040;-29
2022/08/14 11:51:19;;;;;;;4.73;3.00;;;35.50;99.90;;;;;;5068505;28;20103;-29
2022/08/14 11:53:51;;;;;;;6.68;3.13;;;35.40;99.90;;;;;;5055270;28;20041;-28
2022/08/14 11:56:17;;;;;;;;;;;35.50;99.90;;;;;;5053262;28;20095;-29
2022/08/14 11:58:50;;;;;;;3.55;3.10;;;35.30;99.90;;;;;;5043882;28;20015;-29
2022/08/14 12:01:16;;;;;;;3.45;2.90;;;35.20;99.90;;;;;;5067488;28;20040;-29
2022/08/14 12:03:46;;;;;;;3.42;3.13;;;35.10;99.90;;;;;;5051782;28;20090;-29
2022/08/14 12:06:18;;;;;;;4.43;3.13;;;35.20;99.90;;;;;;5051885;28;20061;-28
2022/08/14 12:08:52;;;;;;;3.88;3.42;;;35.40;99.90;;;;;;5055116;28;20040;-30
2022/08/14 12:11:18;;;;;;;5.50;3.38;;;35.20;99.90;;;;;;5055462;28;20048;-29
2022/08/14 12:13:44;;;;;;;4.10;3.50;;;35.40;99.90;;;;;;5051381;28;20072;-29
2022/08/14 12:16:12;;;;;;;5.38;3.35;;;35.30;99.90;;;;;;5052679;28;20072;-28
2022/08/14 12:18:40;;;;;;;6.70;4.03;;;35.40;99.90;;;;;;5053505;28;20048;-28
2022/08/14 12:21:18;;;;;;;6.55;3.47;;;35.40;99.90;;;;;;5054820;28;20092;-30
2022/08/14 12:23:45;;;;;;;4.72;3.65;;;35.20;99.90;;;;;;5053839;28;20053;-29
2022/08/14 12:26:19;;;;;;;3.80;3.50;;;34.70;99.90;;;;;;5054610;28;20087;-28
2022/08/14 12:28:48;;;;;;;4.25;3.58;;;34.30;99.90;;;;;;5045414;28;20079;-28
2022/08/14 12:31:18;;;;;;;3.78;3.47;;;34.10;99.90;;;;;;5047324;28;20049;-28
2022/08/14 12:33:56;;;;;;;4.40;3.50;;;33.80;99.90;;;;;;5053561;28;20444;-30
2022/08/14 12:36:21;;;;;;;3.33;3.05;;;34.00;99.90;;;;;;5032843;28;20057;-29
2022/08/14 12:38:50;;;;;;;5.97;3.55;;;34.40;99.90;;;;;;5049972;28;20144;-28
2022/08/14 12:41:21;;;;;;;4.00;3.60;;;34.80;99.90;;;;;;5047679;28;20049;-29
2022/08/14 12:43:53;;;;;;;4.97;3.55;;;35.20;99.90;;;;;;5052916;28;20041;-29
2022/08/14 12:46:40;;;;;;;3.92;3.53;;;35.50;99.90;;;;;;5040595;28;20041;-29
2022/08/14 12:49:15;;;;;;;4.00;3.60;;;35.40;99.90;;;;;;5045334;28;20498;-29
2022/08/14 12:51:42;;;;;;;6.07;3.58;;;35.60;99.90;;;;;;5051029;28;20098;-29
2022/08/14 12:54:13;;;;;;;4.03;3.40;;;35.90;99.90;;;;;;5054237;28;20049;-30
2022/08/14 12:56:39;;;;;;;5.88;3.55;;;35.80;99.90;;;;;;5054421;28;20116;-29
2022/08/14 12:59:05;;;;;;;6.70;3.58;;;35.80;99.90;;;;;;5047668;28;20246;-29
2022/08/14 13:01:32;;;;;;;3.88;3.55;;;35.90;99.90;;;;;;5053299;28;20044;-28
2022/08/14 13:04:20;;;;;;;3.85;3.45;;;36.10;99.90;;;;;;5053387;28;20049;-29
2022/08/14 13:06:46;;;;;;;4.20;3.80;;;36.10;99.90;;;;;;5053788;28;20491;-30
2022/08/14 13:09:13;;;;;;;3.55;3.10;;;36.20;99.90;;;;;;5052944;28;20091;-29
2022/08/14 13:11:50;;;;;;;4.20;3.80;;;36.70;99.90;;;;;;5052092;28;21836;-29